sensor_id;sensor_type;location;lat;lon;timestamp;pressure;altitude;pressure_sealevel;temperature;humidity
44992;BME280;56865;51.618;7.406;2023-01-29T00:02:05;102170.63;;;0.70;100.00
44992;BME280;56865;51.618;7.406;2023-01-29T00:04:35;102173.91;;;0.60;100.00
44992;BME280;56865;51.618;7.406;2023-01-29T00:07:09;102174.81;;;0.61;100.00
44992;BME280;56865;51.618;7.406;2023-01-29T00:09:40;102168.34;;;0.54;100.00
44992;BME280;56865;51.618;7.406;2023-01-29T00:12:09;102168.34;;;0.54;100.00
44992;BME280;56865;51.618;7.406;2023-01-29T00:14:39;102160.22;;;0.57;100.00
44992;BME280;56865;51.618;7.406;2023-01-29T00:17:12;102161.72;;;0.46;100.00
44992;BME280;56865;51.618;7.406;2023-01-29T00:19:42;102158.06;;;0.42;100.00
44992;BME280;56865;51.618;7.406;2023-01-29T00:22:11;102156.75;;;0.37;100.00
44992;BME280;56865;51.618;7.406;2023-01-29T00:24:46;102160.31;;;0.30;100.00
44992;BME280;56865;51.618;7.406;2023-01-29T00:27:15;102158.56;;;0.29;100.00
44992;BME280;56865;51.618;7.406;2023-01-29T00:29:45;102163.97;;;0.43;100.00
44992;BME280;56865;51.618;7.406;2023-01-29T00:32:37;102158.06;;;0.42;100.00
44992;BME280;56865;51.618;7.406;2023-01-29T00:35:08;102157.31;;;0.43;100.00
44992;BME280;56865;51.618;7.406;2023-01-29T00:37:38;102159.81;;;0.43;100.00
44992;BME280;56865;51.618;7.406;2023-01-29T00:40:10;102148.09;;;0.16;100.00
44992;BME280;56865;51.618;7.406;2023-01-29T00:42:43;102151.66;;;0.18;100.00
44992;BME280;56865;51.618;7.406;2023-01-29T00:45:25;102146.63;;;0.27;100.00
44992;BME280;56865;51.618;7.406;2023-01-29T00:47:57;102146.16;;;0.31;100.00
44992;BME280;56865;51.618;7.406;2023-01-29T00:50:27;102147.09;;;0.14;100.00
44992;BME280;56865;51.618;7.406;2023-01-29T00:52:57;102148.13;;;0.07;100.00
44992;BME280;56865;51.618;7.406;2023-01-29T00:55:27;102154.00;;;0.25;100.00
44992;BME280;56865;51.618;7.406;2023-01-29T00:57:59;102154.22;;;0.46;100.00
44992;BME280;56865;51.618;7.406;2023-01-29T01:00:28;102164.00;;;0.34;100.00
44992;BME280;56865;51.618;7.406;2023-01-29T01:06:07;102159.00;;;0.25;100.00
44992;BME280;56865;51.618;7.406;2023-01-29T01:08:37;102165.47;;;0.32;100.00
44992;BME280;56865;51.618;7.406;2023-01-29T01:11:19;102162.66;;;0.29;100.00
44992;BME280;56865;51.618;7.406;2023-01-29T01:13:49;102156.03;;;0.29;100.00
44992;BME280;56865;51.618;7.406;2023-01-29T01:16:20;102159.00;;;0.34;100.00
44992;BME280;56865;51.618;7.406;2023-01-29T01:18:52;102155.38;;;0.50;100.00
44992;BME280;56865;51.618;7.406;2023-01-29T01:21:25;102147.44;;;0.45;100.00
44992;BME280;56865;51.618;7.406;2023-01-29T01:23:55;102132.53;;;0.38;100.00
44992;BME280;56865;51.618;7.406;2023-01-29T01:26:24;102120.41;;;0.14;100.00
44992;BME280;56865;51.618;7.406;2023-01-29T01:28:54;102116.44;;;0.08;100.00
44992;BME280;56865;51.618;7.406;2023-01-29T01:31:24;102101.28;;;-0.03;100.00
44992;BME280;56865;51.618;7.406;2023-01-29T01:33:54;102110.88;;;0.02;100.00
44992;BME280;56865;51.618;7.406;2023-01-29T01:36:26;102106.53;;;0.18;100.00
44992;BME280;56865;51.618;7.406;2023-01-29T01:38:57;102104.22;;;-0.07;100.00
44992;BME280;56865;51.618;7.406;2023-01-29T01:41:28;102105.84;;;0.02;100.00
44992;BME280;56865;51.618;7.406;2023-01-29T01:43:59;102111.25;;;0.15;100.00
44992;BME280;56865;51.618;7.406;2023-01-29T01:46:30;102105.97;;;0.03;100.00
44992;BME280;56865;51.618;7.406;2023-01-29T01:49:02;102106.28;;;-0.03;100.00
44992;BME280;56865;51.618;7.406;2023-01-29T01:51:38;102105.72;;;0.00;100.00
44992;BME280;56865;51.618;7.406;2023-01-29T01:54:13;102117.91;;;0.06;100.00
44992;BME280;56865;51.618;7.406;2023-01-29T01:56:50;102121.81;;;0.30;100.00
44992;BME280;56865;51.618;7.406;2023-01-29T01:59:23;102120.19;;;0.30;100.00
44992;BME280;56865;51.618;7.406;2023-01-29T02:01:53;102119.00;;;0.36;100.00
44992;BME280;56865;51.618;7.406;2023-01-29T02:04:24;102118.16;;;0.18;100.00
44992;BME280;56865;51.618;7.406;2023-01-29T02:07:11;102124.00;;;-0.10;100.00
44992;BME280;56865;51.618;7.406;2023-01-29T02:09:55;102118.88;;;-0.20;100.00
44992;BME280;56865;51.618;7.406;2023-01-29T02:12:30;102115.28;;;0.04;100.00
44992;BME280;56865;51.618;7.406;2023-01-29T02:15:02;102112.75;;;0.13;100.00
44992;BME280;56865;51.618;7.406;2023-01-29T02:17:33;102127.03;;;0.23;100.00
44992;BME280;56865;51.618;7.406;2023-01-29T02:20:14;102112.22;;;0.35;100.00
44992;BME280;56865;51.618;7.406;2023-01-29T02:23:10;102114.00;;;0.36;100.00
44992;BME280;56865;51.618;7.406;2023-01-29T02:25:58;102130.38;;;0.32;100.00
44992;BME280;56865;51.618;7.406;2023-01-29T02:28:40;102127.91;;;0.14;100.00
44992;BME280;56865;51.618;7.406;2023-01-29T02:31:21;102133.00;;;0.34;100.00
44992;BME280;56865;51.618;7.406;2023-01-29T02:33:55;102132.34;;;0.54;100.00
44992;BME280;56865;51.618;7.406;2023-01-29T02:36:34;102130.44;;;0.06;100.00
44992;BME280;56865;51.618;7.406;2023-01-29T02:39:13;102137.44;;;0.36;100.00
44992;BME280;56865;51.618;7.406;2023-01-29T02:41:47;102140.72;;;0.63;100.00
44992;BME280;56865;51.618;7.406;2023-01-29T02:44:28;102130.94;;;0.38;100.00
44992;BME280;56865;51.618;7.406;2023-01-29T02:47:04;102125.03;;;0.38;100.00
44992;BME280;56865;51.618;7.406;2023-01-29T02:49:40;102121.81;;;0.30;100.00
44992;BME280;56865;51.618;7.406;2023-01-29T02:52:21;102121.28;;;0.15;100.00
44992;BME280;56865;51.618;7.406;2023-01-29T02:54:57;102121.31;;;-0.03;100.00
44992;BME280;56865;51.618;7.406;2023-01-29T02:57:34;102129.81;;;0.17;100.00
44992;BME280;56865;51.618;7.406;2023-01-29T03:00:11;102132.03;;;0.59;100.00
44992;BME280;56865;51.618;7.406;2023-01-29T03:02:50;102131.63;;;0.09;100.00
44992;BME280;56865;51.618;7.406;2023-01-29T03:05:24;102137.16;;;0.33;100.00
44992;BME280;56865;51.618;7.406;2023-01-29T03:07:58;102131.16;;;0.13;100.00
44992;BME280;56865;51.618;7.406;2023-01-29T03:10:34;102132.19;;;0.15;100.00
44992;BME280;56865;51.618;7.406;2023-01-29T03:13:09;102128.97;;;0.08;100.00
44992;BME280;56865;51.618;7.406;2023-01-29T03:15:46;102111.91;;;-0.14;100.00
44992;BME280;56865;51.618;7.406;2023-01-29T03:18:28;102121.88;;;0.12;100.00
44992;BME280;56865;51.618;7.406;2023-01-29T03:21:02;102129.75;;;0.35;100.00
44992;BME280;56865;51.618;7.406;2023-01-29T03:23:57;102131.50;;;0.44;100.00
44992;BME280;56865;51.618;7.406;2023-01-29T03:26:43;102138.69;;;0.13;100.00
44992;BME280;56865;51.618;7.406;2023-01-29T03:29:27;102140.53;;;0.34;100.00
44992;BME280;56865;51.618;7.406;2023-01-29T03:32:17;102144.88;;;0.54;100.00
44992;BME280;56865;51.618;7.406;2023-01-29T03:34:53;102150.66;;;0.44;100.00
44992;BME280;56865;51.618;7.406;2023-01-29T03:37:31;102145.38;;;0.41;100.00
44992;BME280;56865;51.618;7.406;2023-01-29T03:40:06;102137.44;;;0.36;100.00
44992;BME280;56865;51.618;7.406;2023-01-29T03:42:43;102133.88;;;0.43;100.00
44992;BME280;56865;51.618;7.406;2023-01-29T03:45:24;102122.94;;;0.42;100.00
44992;BME280;56865;51.618;7.406;2023-01-29T03:48:01;102131.53;;;0.36;100.00
44992;BME280;56865;51.618;7.406;2023-01-29T03:50:40;102147.88;;;0.41;100.00
44992;BME280;56865;51.618;7.406;2023-01-29T03:53:21;102138.31;;;0.37;100.00
44992;BME280;56865;51.618;7.406;2023-01-29T03:55:59;102128.88;;;0.43;100.00
44992;BME280;56865;51.618;7.406;2023-01-29T03:58:34;102123.84;;;0.43;100.00
44992;BME280;56865;51.618;7.406;2023-01-29T04:01:15;102127.94;;;0.51;100.00
44992;BME280;56865;51.618;7.406;2023-01-29T04:04:00;102119.66;;;0.52;100.00
44992;BME280;56865;51.618;7.406;2023-01-29T04:06:42;102122.38;;;0.36;100.00
44992;BME280;56865;51.618;7.406;2023-01-29T04:09:29;102109.94;;;0.46;100.00
44992;BME280;56865;51.618;7.406;2023-01-29T04:12:13;102111.63;;;0.65;100.00
44992;BME280;56865;51.618;7.406;2023-01-29T04:14:58;102108.06;;;0.72;100.00
44992;BME280;56865;51.618;7.406;2023-01-29T04:17:48;102100.81;;;0.47;100.00
44992;BME280;56865;51.618;7.406;2023-01-29T04:23:28;102088.13;;;0.45;100.00
44992;BME280;56865;51.618;7.406;2023-01-29T04:26:37;102075.81;;;0.57;100.00
44992;BME280;56865;51.618;7.406;2023-01-29T04:29:56;102080.91;;;0.68;100.00
44992;BME280;56865;51.618;7.406;2023-01-29T04:32:56;102089.69;;;0.54;100.00
44992;BME280;56865;51.618;7.406;2023-01-29T04:39:20;102079.75;;;0.92;100.00
44992;BME280;56865;51.618;7.406;2023-01-29T04:45:35;102069.75;;;0.83;100.00
44992;BME280;56865;51.618;7.406;2023-01-29T04:48:28;102062.91;;;0.72;100.00
44992;BME280;56865;51.618;7.406;2023-01-29T05:04:58;102042.75;;;1.19;100.00
44992;BME280;56865;51.618;7.406;2023-01-29T12:01:06;101817.50;;;2.64;100.00
44992;BME280;56865;51.618;7.406;2023-01-29T12:03:38;101814.81;;;2.72;100.00
44992;BME280;56865;51.618;7.406;2023-01-29T12:06:29;101795.13;;;2.56;100.00
44992;BME280;56865;51.618;7.406;2023-01-29T12:09:08;101790.56;;;2.63;100.00
44992;BME280;56865;51.618;7.406;2023-01-29T12:11:42;101781.97;;;2.71;100.00
44992;BME280;56865;51.618;7.406;2023-01-29T12:17:18;101771.00;;;2.81;100.00
44992;BME280;56865;51.618;7.406;2023-01-29T12:19:52;101773.66;;;2.94;100.00
44992;BME280;56865;51.618;7.406;2023-01-29T12:22:29;101770.50;;;2.74;100.00
44992;BME280;56865;51.618;7.406;2023-01-29T12:25:07;101753.59;;;3.06;100.00
44992;BME280;56865;51.618;7.406;2023-01-29T12:27:45;101747.69;;;2.83;100.00
44992;BME280;56865;51.618;7.406;2023-01-29T12:30:18;101757.22;;;2.87;100.00
44992;BME280;56865;51.618;7.406;2023-01-29T12:32:55;101739.53;;;2.98;100.00
44992;BME280;56865;51.618;7.406;2023-01-29T12:35:28;101738.47;;;3.06;100.00
44992;BME280;56865;51.618;7.406;2023-01-29T12:38:01;101740.28;;;2.97;100.00
44992;BME280;56865;51.618;7.406;2023-01-29T12:40:32;101734.72;;;3.01;100.00
44992;BME280;56865;51.618;7.406;2023-01-29T12:43:10;101723.88;;;3.02;100.00
44992;BME280;56865;51.618;7.406;2023-01-29T19:51:53;101306.75;;;3.28;100.00
44992;BME280;56865;51.618;7.406;2023-01-29T21:23:45;101180.00;;;3.67;100.00
44992;BME280;56865;51.618;7.406;2023-01-29T21:26:15;101156.19;;;4.04;100.00
44992;BME280;56865;51.618;7.406;2023-01-29T21:28:52;101148.81;;;4.07;100.00
44992;BME280;56865;51.618;7.406;2023-01-29T21:31:23;101163.84;;;4.05;100.00
44992;BME280;56865;51.618;7.406;2023-01-29T21:33:53;101168.19;;;4.21;100.00
44992;BME280;56865;51.618;7.406;2023-01-29T21:36:24;101169.44;;;4.15;100.00
44992;BME280;56865;51.618;7.406;2023-01-29T21:38:57;101167.78;;;4.29;100.00
44992;BME280;56865;51.618;7.406;2023-01-29T21:41:27;101174.41;;;4.13;100.00
44992;BME280;56865;51.618;7.406;2023-01-29T21:44:09;101165.94;;;4.26;100.00
44992;BME280;56865;51.618;7.406;2023-01-29T21:46:39;101186.81;;;4.23;100.00
44992;BME280;56865;51.618;7.406;2023-01-29T21:49:10;101187.56;;;4.36;100.00
44992;BME280;56865;51.618;7.406;2023-01-29T21:51:44;101198.13;;;4.44;100.00
44992;BME280;56865;51.618;7.406;2023-01-29T21:54:23;101194.66;;;4.28;100.00
44992;BME280;56865;51.618;7.406;2023-01-29T21:57:12;101185.13;;;4.37;100.00
44992;BME280;56865;51.618;7.406;2023-01-29T21:59:48;101182.53;;;4.22;100.00
44992;BME280;56865;51.618;7.406;2023-01-29T22:02:20;101175.28;;;4.14;100.00
44992;BME280;56865;51.618;7.406;2023-01-29T22:04:53;101159.50;;;4.31;100.00
44992;BME280;56865;51.618;7.406;2023-01-29T22:07:45;101167.38;;;4.36;100.00
44992;BME280;56865;51.618;7.406;2023-01-29T22:10:23;101170.34;;;4.44;100.00
44992;BME280;56865;51.618;7.406;2023-01-29T22:12:56;101185.59;;;4.45;100.00
44992;BME280;56865;51.618;7.406;2023-01-29T22:15:29;101175.91;;;4.38;100.00
44992;BME280;56865;51.618;7.406;2023-01-29T22:18:00;101174.84;;;4.48;100.00
44992;BME280;56865;51.618;7.406;2023-01-29T22:20:43;101170.25;;;4.55;100.00
44992;BME280;56865;51.618;7.406;2023-01-29T22:23:14;101162.22;;;4.48;100.00
44992;BME280;56865;51.618;7.406;2023-01-29T22:25:50;101168.59;;;4.43;100.00
44992;BME280;56865;51.618;7.406;2023-01-29T22:28:45;101160.56;;;4.35;100.00
44992;BME280;56865;51.618;7.406;2023-01-29T22:31:21;101161.59;;;4.52;100.00
44992;BME280;56865;51.618;7.406;2023-01-29T22:34:09;101152.38;;;4.52;100.00
44992;BME280;56865;51.618;7.406;2023-01-29T22:37:19;101163.13;;;4.63;100.00
44992;BME280;56865;51.618;7.406;2023-01-29T22:40:12;101164.59;;;4.60;100.00
44992;BME280;56865;51.618;7.406;2023-01-29T22:49:16;101135.03;;;4.72;100.00
44992;BME280;56865;51.618;7.406;2023-01-29T22:55:19;101089.28;;;4.67;100.00
44992;BME280;56865;51.618;7.406;2023-01-29T22:58:08;101095.56;;;4.74;100.00
44992;BME280;56865;51.618;7.406;2023-01-29T23:01:05;101088.94;;;4.61;100.00
44992;BME280;56865;51.618;7.406;2023-01-29T23:03:49;101070.50;;;4.62;100.00
44992;BME280;56865;51.618;7.406;2023-01-29T23:06:37;101042.63;;;4.61;100.00
44992;BME280;56865;51.618;7.406;2023-01-29T23:09:51;101014.44;;;4.68;100.00
44992;BME280;56865;51.618;7.406;2023-01-29T23:12:48;100988.16;;;4.79;100.00
44992;BME280;56865;51.618;7.406;2023-01-29T23:15:23;100972.31;;;4.67;100.00
44992;BME280;56865;51.618;7.406;2023-01-29T23:18:03;100954.97;;;4.73;100.00
44992;BME280;56865;51.618;7.406;2023-01-29T23:20:37;100961.50;;;4.84;100.00
44992;BME280;56865;51.618;7.406;2023-01-29T23:23:29;100983.94;;;4.80;100.00
44992;BME280;56865;51.618;7.406;2023-01-29T23:26:04;101019.28;;;4.95;100.00
44992;BME280;56865;51.618;7.406;2023-01-29T23:28:47;101015.19;;;4.97;100.00
44992;BME280;56865;51.618;7.406;2023-01-29T23:31:23;101020.91;;;5.09;100.00
44992;BME280;56865;51.618;7.406;2023-01-29T23:34:00;101000.41;;;4.88;100.00
44992;BME280;56865;51.618;7.406;2023-01-29T23:36:45;100994.13;;;4.96;100.00
44992;BME280;56865;51.618;7.406;2023-01-29T23:39:27;100981.00;;;4.87;100.00
44992;BME280;56865;51.618;7.406;2023-01-29T23:41:57;100991.25;;;4.90;100.00
44992;BME280;56865;51.618;7.406;2023-01-29T23:44:28;100975.72;;;4.99;100.00
44992;BME280;56865;51.618;7.406;2023-01-29T23:47:03;100966.53;;;4.84;100.00
44992;BME280;56865;51.618;7.406;2023-01-29T23:49:50;100958.50;;;4.92;100.00
44992;BME280;56865;51.618;7.406;2023-01-29T23:52:25;100942.59;;;5.09;100.00
44992;BME280;56865;51.618;7.406;2023-01-29T23:55:13;100935.88;;;4.93;100.00
44992;BME280;56865;51.618;7.406;2023-01-29T23:57:47;100940.88;;;5.08;100.00
